Albany, Nebraska
Current Conditions -  °F | °C
As of 8:35 PM on Sunday 23 Nov 2014 (Local Time) from KHDE Reporting Station
Clear Clear  
Wind Chill: 29°   Ceiling: Unl
Heat Index: 38°   Visibility: 10mi
Dew Point: 19°   Wind: 15mph
Humidity: 46%   Direction: 320°NW
Pressure: 29.7"   Gusts: 22mph
Location:  40.2849°N, 99.6171°W
Report Text: KHDE 240235Z AUTO 32013G19KT 10SM CLR 03/M07 A2970 RMK AO2 T00341073
Loading
Personal Weather Stations






























Interactive Weather Map New forecast layout! Learn more

10-Day Weather Forecast

Advertisements
Track Severe Weather on mobile